Page, AZ

11:41 PM MST on May 06, 2015 (GMT -0700)
Bryce Canyon | | Change Station
CLOSE
Current Station
Airport
Location: Bryce Canyon,
Elevation: 7585 ft
Nearby Weather Stations

Elev 7585 ft 37.71 °N, 112.15 °W | Updated 48 minutes ago

Clear
Clear
44 °F
Feels Like 42 °F
N
5
Wind Variable Wind from WNW

Today
High -- | Low -- °F
--% Chance of Precip.
Yesterday
High -- | Low -- °F
Precip. -- in
5:26 AM 7:19 PM
Waning Gibbous, 90% visible
Pressure 29.64 in
Visibility 10.0 miles
Clouds Few 4300 ft
Scattered Clouds 6000 ft
Mostly Cloudy 8000 ft
Windchill 42 °F
Dew Point 30 °F
Humidity 58%
Rainfall 0.00 in
Snow Depth Not available.
UV 0 out of 12
Pollen 7.20 out of 12
Air Quality Not available.
Flu Activity Local Activity
METAR KBCE 070553Z AUTO 29004KT 10SM -RA FEW043 SCT060 BKN080 07/M01 A2990 RMK AO2 RAB47 SLP036 P0000 60000 T00671011 10144 20067 50007

More Conditions Fewer Conditions

Pressure 29.64 in
Visibility 10.0 miles
Clouds Few 4300 ft
Scattered Clouds 6000 ft
Mostly Cloudy 8000 ft
Windchill 42 °F
Dew Point 30 °F
Humidity 58%
Rainfall 0.00 in
Snow Depth Not available.
UV 0 out of 12
Pollen 7.20 out of 12
Air Quality Not available.
Flu Activity Local Activity
METAR KBCE 070553Z AUTO 29004KT 10SM -RA FEW043 SCT060 BKN080 07/M01 A2990 RMK AO2 RAB47 SLP036 P0000 60000 T00671011 10144 20067 50007

More Conditions Fewer Conditions

10-Day Weather Forecast

Almanac

Astronomy

May. 06, 2015 Rise Set
Actual Time
Civil Twilight
Nautical Twilight
Astronomical Twilight
Moon
Length of Visible Light
Length of Day
Tomorrow will be .
, % of the Moon is Illuminated

Today's Extremes

State Highs State Lows

Community

WunderPhotos

Upload Photos

1,819,126 photos uploaded!

WunderBlogs® & News

Nearby

Air Quality

  Air Quality AQ Index Pollutant
Not available.

Snow Depth

Station Depth Elevation

Earthquake Activity

City Distance Mag. Time & Date
Minimum magnitude displayed is 2.5.

Coastal Water Temperatures

Place Temperature

Stations

Nearby Weather Stations

Station Location Temp. Windchill Dew Point Humidity Wind Precip. Elev Updated Type